AFR129 GMAD-LFPG
Flight info
| Callsign | AFR129 |
|---|---|
| Flight time | N/A |
| Altitude | 36000 |
| Route | MOGBA UH300 ESS UR724 OSLAD DCT OBOLO DCT GIMAL DCT VFA DCT MARIM DCT ALAGU DCT ELVAR/N0441F380 DCT BARDI DCT ZMR DCT NUBLO DCT RONSI DCT DELOG DCT YURZI DCT NTS/N0439F300 UN741 KEPER |
| Aircraft | A320/M-SDE3FGHIRWY/LB1 |
Departure
| Time | 2026-04-22 08:06 |
|---|---|
| Airport | Al Massira Airport (GMAD) |
Arrival
| Time | N/A |
|---|---|
| Airport | Charles de Gaulle International Airport (LFPG) |
| Time | Latitude | Longitude | Altitude | Speed | Heading |
|---|---|---|---|---|---|
| 2026-04-22 07:26 | 30.32911 | -9.41177 | 234 ft | 0 kts | 315° |
| 2026-04-22 07:57 | 30.32904 | -9.41169 | 235 ft | 4 kts | 321° |
| 2026-04-22 07:57 | 30.32882 | -9.41154 | 235 ft | 4 kts | 347° |
| 2026-04-22 07:58 | 30.32855 | -9.41152 | 235 ft | 4 kts | 12° |
| 2026-04-22 07:58 | 30.32831 | -9.41163 | 236 ft | 4 kts | 36° |
| 2026-04-22 07:58 | 30.32814 | -9.41184 | 237 ft | 4 kts | 79° |
| 2026-04-22 07:58 | 30.32813 | -9.41191 | 236 ft | 1 kts | 90° |
| 2026-04-22 08:00 | 30.32813 | -9.41188 | 237 ft | 2 kts | 90° |
| 2026-04-22 08:00 | 30.32812 | -9.41140 | 236 ft | 10 kts | 90° |
| 2026-04-22 08:00 | 30.32809 | -9.41034 | 237 ft | 17 kts | 92° |
| 2026-04-22 08:01 | 30.32805 | -9.40874 | 239 ft | 23 kts | 90° |
| 2026-04-22 08:01 | 30.32799 | -9.40711 | 242 ft | 19 kts | 105° |
| 2026-04-22 08:01 | 30.32698 | -9.40671 | 243 ft | 20 kts | 182° |
| 2026-04-22 08:01 | 30.32535 | -9.40675 | 243 ft | 26 kts | 181° |
| 2026-04-22 08:02 | 30.32438 | -9.40613 | 243 ft | 16 kts | 97° |
| 2026-04-22 08:02 | 30.32436 | -9.40489 | 245 ft | 15 kts | 90° |
| 2026-04-22 08:02 | 30.32432 | -9.40369 | 247 ft | 14 kts | 91° |
| 2026-04-22 08:02 | 30.32430 | -9.40259 | 249 ft | 14 kts | 91° |
| 2026-04-22 08:03 | 30.32427 | -9.40129 | 251 ft | 19 kts | 91° |
| 2026-04-22 08:03 | 30.32422 | -9.39952 | 255 ft | 25 kts | 91° |
| 2026-04-22 08:03 | 30.32416 | -9.39735 | 258 ft | 27 kts | 91° |
| 2026-04-22 08:03 | 30.32409 | -9.39538 | 262 ft | 17 kts | 112° |
| 2026-04-22 08:04 | 30.32332 | -9.39511 | 263 ft | 10 kts | 177° |
| 2026-04-22 08:04 | 30.32271 | -9.39513 | 264 ft | 7 kts | 188° |
| 2026-04-22 08:04 | 30.32233 | -9.39531 | 264 ft | 5 kts | 219° |
| 2026-04-22 08:04 | 30.32224 | -9.39563 | 264 ft | 4 kts | 274° |
| 2026-04-22 08:05 | 30.32224 | -9.39568 | 263 ft | 0 kts | 271° |
| 2026-04-22 08:05 | 30.32225 | -9.39639 | 262 ft | 37 kts | 271° |
| 2026-04-22 08:05 | 30.32240 | -9.40264 | 247 ft | 114 kts | 271° |
| 2026-04-22 08:05 | 30.32267 | -9.41419 | 234 ft | 171 kts | 271° |
| 2026-04-22 08:06 | 30.32301 | -9.42864 | 693 ft | 183 kts | 272° |
| 2026-04-22 08:06 | 30.32370 | -9.44361 | 1378 ft | 189 kts | 274° |
| 2026-04-22 08:06 | 30.32454 | -9.45900 | 2089 ft | 193 kts | 274° |
| 2026-04-22 08:06 | 30.32543 | -9.47488 | 2610 ft | 203 kts | 274° |
| 2026-04-22 08:07 | 30.32594 | -9.49167 | 3039 ft | 218 kts | 262° |
| 2026-04-22 08:07 | 30.31929 | -9.50745 | 3488 ft | 227 kts | 222° |
| 2026-04-22 08:07 | 30.30707 | -9.52004 | 3982 ft | 244 kts | 221° |
| 2026-04-22 08:07 | 30.29441 | -9.53419 | 4507 ft | 261 kts | 223° |
| 2026-04-22 08:08 | 30.28139 | -9.54956 | 5175 ft | 271 kts | 225° |
| 2026-04-22 08:08 | 30.27128 | -9.56795 | 6085 ft | 276 kts | 247° |
| 2026-04-22 08:08 | 30.26637 | -9.58951 | 6957 ft | 278 kts | 252° |
| 2026-04-22 08:08 | 30.26177 | -9.61134 | 7787 ft | 280 kts | 251° |
| 2026-04-22 08:09 | 30.25711 | -9.63328 | 8610 ft | 282 kts | 251° |
| 2026-04-22 08:09 | 30.25237 | -9.65534 | 9427 ft | 284 kts | 251° |
| 2026-04-22 08:09 | 30.24754 | -9.67755 | 10203 ft | 286 kts | 251° |
| 2026-04-22 08:09 | 30.24527 | -9.70110 | 10639 ft | 308 kts | 270° |
| 2026-04-22 08:10 | 30.25084 | -9.72588 | 11036 ft | 332 kts | 292° |
| 2026-04-22 08:10 | 30.26496 | -9.74795 | 11405 ft | 355 kts | 315° |
| 2026-04-22 08:10 | 30.28648 | -9.76236 | 11866 ft | 372 kts | 341° |
| 2026-04-22 08:10 | 30.31228 | -9.76717 | 12522 ft | 379 kts | 352° |
| 2026-04-22 08:11 | 30.33802 | -9.77330 | 13212 ft | 378 kts | 340° |
| 2026-04-22 08:11 | 30.36367 | -9.78076 | 13899 ft | 383 kts | 349° |
| 2026-04-22 08:11 | 30.39037 | -9.78173 | 14534 ft | 387 kts | 5° |
| 2026-04-22 08:11 | 30.41697 | -9.77586 | 15162 ft | 390 kts | 9° |
| 2026-04-22 08:12 | 30.44376 | -9.77095 | 15787 ft | 391 kts | 5° |
| 2026-04-22 08:12 | 30.47082 | -9.76788 | 16416 ft | 392 kts | 4° |
| 2026-04-22 08:12 | 30.49806 | -9.76495 | 17047 ft | 393 kts | 4° |
| 2026-04-22 08:12 | 30.52534 | -9.76228 | 17668 ft | 395 kts | 3° |
| 2026-04-22 08:13 | 30.55282 | -9.75983 | 18294 ft | 396 kts | 3° |
| 2026-04-22 08:13 | 30.58035 | -9.75748 | 18817 ft | 398 kts | 3° |
| 2026-04-22 08:13 | 30.60819 | -9.75512 | 19331 ft | 401 kts | 2° |
| 2026-04-22 08:13 | 30.63614 | -9.75279 | 19848 ft | 404 kts | 2° |
| 2026-04-22 08:14 | 30.66395 | -9.75045 | 20360 ft | 406 kts | 2° |
| 2026-04-22 08:14 | 30.69224 | -9.74805 | 20871 ft | 409 kts | 2° |
| 2026-04-22 08:14 | 30.72072 | -9.74560 | 21356 ft | 412 kts | 2° |
| 2026-04-22 08:14 | 30.74941 | -9.74311 | 21829 ft | 414 kts | 2° |
| 2026-04-22 08:15 | 30.77825 | -9.74058 | 22303 ft | 417 kts | 2° |
| 2026-04-22 08:15 | 30.80725 | -9.73803 | 22761 ft | 420 kts | 2° |
| 2026-04-22 08:15 | 30.83648 | -9.73546 | 23210 ft | 422 kts | 2° |
| 2026-04-22 08:15 | 30.86592 | -9.73290 | 23631 ft | 425 kts | 2° |
| 2026-04-22 08:16 | 30.89550 | -9.73035 | 23986 ft | 427 kts | 2° |
| 2026-04-22 08:16 | 30.92521 | -9.72780 | 24343 ft | 429 kts | 2° |
| 2026-04-22 08:16 | 30.95512 | -9.72522 | 24683 ft | 431 kts | 2° |
| 2026-04-22 08:16 | 30.98512 | -9.72259 | 25025 ft | 433 kts | 2° |
| 2026-04-22 08:17 | 31.01523 | -9.71994 | 25347 ft | 435 kts | 2° |
| 2026-04-22 08:17 | 31.04556 | -9.71729 | 25677 ft | 437 kts | 1° |
| 2026-04-22 08:17 | 31.07596 | -9.71471 | 25991 ft | 439 kts | 1° |
| 2026-04-22 08:17 | 31.10660 | -9.71213 | 26313 ft | 442 kts | 1° |
| 2026-04-22 08:18 | 31.13733 | -9.70953 | 26629 ft | 444 kts | 1° |
| 2026-04-22 08:18 | 31.16821 | -9.70690 | 26933 ft | 446 kts | 1° |
| 2026-04-22 08:18 | 31.19882 | -9.70430 | 27232 ft | 448 kts | 1° |
| 2026-04-22 08:18 | 31.23036 | -9.70160 | 27533 ft | 450 kts | 1° |
| 2026-04-22 08:19 | 31.26163 | -9.69892 | 27828 ft | 452 kts | 1° |
| 2026-04-22 08:19 | 31.29303 | -9.69621 | 28121 ft | 453 kts | 1° |
| 2026-04-22 08:19 | 31.32418 | -9.69353 | 28401 ft | 455 kts | 1° |
| 2026-04-22 08:19 | 31.35582 | -9.69082 | 28670 ft | 457 kts | 1° |
| 2026-04-22 08:20 | 31.38758 | -9.68807 | 28925 ft | 459 kts | 2° |
| 2026-04-22 08:20 | 31.41921 | -9.68195 | 29165 ft | 464 kts | 10° |
| 2026-04-22 08:20 | 31.45064 | -9.67294 | 29406 ft | 466 kts | 10° |
| 2026-04-22 08:20 | 31.48221 | -9.66388 | 29630 ft | 468 kts | 10° |
| 2026-04-22 08:21 | 31.51389 | -9.65478 | 29850 ft | 469 kts | 10° |
| 2026-04-22 08:21 | 31.54569 | -9.64568 | 30067 ft | 471 kts | 10° |
| 2026-04-22 08:21 | 31.57758 | -9.63654 | 30270 ft | 471 kts | 10° |
| 2026-04-22 08:21 | 31.60947 | -9.62738 | 30537 ft | 470 kts | 10° |
| 2026-04-22 08:22 | 31.64116 | -9.61827 | 30794 ft | 469 kts | 10° |
| 2026-04-22 08:22 | 31.67288 | -9.60911 | 31054 ft | 468 kts | 10° |
| 2026-04-22 08:22 | 31.70449 | -9.59999 | 31298 ft | 468 kts | 10° |
| 2026-04-22 08:22 | 31.73611 | -9.59087 | 31562 ft | 467 kts | 10° |
| 2026-04-22 08:23 | 31.76766 | -9.58177 | 31816 ft | 467 kts | 10° |
| 2026-04-22 08:23 | 31.79880 | -9.57284 | 32064 ft | 466 kts | 10° |
| 2026-04-22 08:23 | 31.83025 | -9.56381 | 32321 ft | 466 kts | 9° |
| 2026-04-22 08:23 | 31.86179 | -9.55473 | 32574 ft | 465 kts | 9° |
| 2026-04-22 08:24 | 31.89320 | -9.54565 | 32813 ft | 465 kts | 9° |
| 2026-04-22 08:24 | 31.92457 | -9.53660 | 33055 ft | 464 kts | 9° |
| 2026-04-22 08:24 | 31.95591 | -9.52753 | 33303 ft | 464 kts | 9° |
| 2026-04-22 08:24 | 31.98723 | -9.51844 | 33541 ft | 463 kts | 9° |
| 2026-04-22 08:25 | 32.01851 | -9.50938 | 33784 ft | 463 kts | 9° |
| 2026-04-22 08:25 | 32.04972 | -9.50033 | 34021 ft | 462 kts | 9° |
| 2026-04-22 08:25 | 32.08094 | -9.49127 | 34228 ft | 462 kts | 9° |
| 2026-04-22 08:25 | 32.11212 | -9.48220 | 34444 ft | 461 kts | 9° |
| 2026-04-22 08:26 | 32.14318 | -9.47316 | 34655 ft | 460 kts | 9° |
| 2026-04-22 08:26 | 32.17430 | -9.46414 | 34856 ft | 460 kts | 9° |
| 2026-04-22 08:26 | 32.20533 | -9.45516 | 35065 ft | 459 kts | 9° |
| 2026-04-22 08:26 | 32.23639 | -9.44615 | 35260 ft | 458 kts | 9° |